Time;durP1;ratioP1;P1;durP2;ratioP2;P2;SDS_P1;SDS_P2;PMS_P1;PMS_P2;Temp;Humidity;BMP_temperature;BMP_pressure;BME280_temperature;BME280_humidity;BME280_pressure;Samples;Min_cycle;Max_cycle;Signal;HPM_P1;HPM_P2
2021/04/06 00:02:57;;;;;;;50.85;27.45;;;;;;;2.06;100.00;93961.38;10493561;28;20028;-83
2021/04/06 00:08:00;;;;;;;50.88;26.33;;;;;;;2.08;100.00;93959.31;10493030;28;20052;-82
2021/04/06 00:13:02;;;;;;;49.25;26.95;;;;;;;1.98;100.00;93951.16;10493242;28;20035;-82
2021/04/06 00:18:05;;;;;;;53.08;27.92;;;;;;;1.93;100.00;93933.34;10452012;28;20032;-82
2021/04/06 00:23:08;;;;;;;53.17;26.77;;;;;;;1.87;100.00;93931.63;10451817;28;20025;-83
2021/04/06 00:28:12;;;;;;;53.85;26.15;;;;;;;1.79;100.00;93919.59;10451445;28;20036;-83
2021/04/06 00:33:15;;;;;;;47.25;25.33;;;;;;;1.81;100.00;93900.78;10465041;28;20037;-83
2021/04/06 00:38:17;;;;;;;47.88;26.85;;;;;;;1.75;100.00;93901.75;10450031;28;20052;-83
2021/04/06 00:43:18;;;;;;;48.72;25.27;;;;;;;1.74;100.00;93894.84;10450877;28;20060;-84
2021/04/06 00:48:19;;;;;;;41.45;21.50;;;;;;;1.70;100.00;93894.50;10450845;28;20031;-84
2021/04/06 00:53:22;;;;;;;43.35;22.45;;;;;;;1.59;100.00;93882.97;10451038;28;20088;-85
2021/04/06 00:58:25;;;;;;;36.20;21.13;;;;;;;1.66;100.00;93869.53;10489572;28;20060;-84
2021/04/06 01:03:26;;;;;;;38.25;20.85;;;;;;;1.59;100.00;93869.72;10492193;28;20025;-84
2021/04/06 01:08:28;;;;;;;35.30;20.05;;;;;;;1.76;100.00;93874.22;10491686;28;20126;-84
2021/04/06 01:13:29;;;;;;;41.03;21.48;;;;;;;1.83;100.00;93872.22;10492103;28;20394;-84
2021/04/06 01:18:30;;;;;;;40.90;20.80;;;;;;;1.78;100.00;93869.50;10492047;28;20028;-84
2021/04/06 01:23:34;;;;;;;41.70;21.45;;;;;;;1.67;100.00;93871.16;10491634;28;20065;-84
2021/04/06 01:28:34;;;;;;;42.03;22.65;;;;;;;1.73;100.00;93850.84;10492204;28;20028;-85
2021/04/06 01:33:35;;;;;;;35.65;19.63;;;;;;;1.68;100.00;93848.94;10491546;28;20033;-84
2021/04/06 01:38:41;;;;;;;35.03;19.27;;;;;;;1.63;100.00;93862.91;10490120;28;20039;-84
2021/04/06 01:43:46;;;;;;;41.60;20.90;;;;;;;1.75;100.00;93859.38;10490228;28;20036;-84
2021/04/06 01:48:47;;;;;;;35.65;21.13;;;;;;;1.56;100.00;93853.50;10496425;28;20029;-84
2021/04/06 01:53:49;;;;;;;34.00;19.40;;;;;;;1.46;100.00;93841.66;10498047;28;20020;-81
2021/04/06 01:58:53;;;;;;;33.72;18.92;;;;;;;1.39;100.00;93862.19;10456496;28;20032;-83
2021/04/06 02:04:04;;;;;;;36.58;19.65;;;;;;;1.43;100.00;93846.66;10455871;28;20029;-83
2021/04/06 02:09:08;;;;;;;40.42;18.85;;;;;;;1.44;100.00;93841.13;10453515;28;20426;-83
2021/04/06 02:14:11;;;;;;;34.20;17.92;;;;;;;1.50;100.00;93834.06;10454151;28;20550;-81
2021/04/06 02:19:37;;;;;;;33.80;19.52;;;;;;;1.51;100.00;93839.13;10451681;28;20112;-81
2021/04/06 02:24:42;;;;;;;35.92;17.80;;;;;;;1.49;100.00;93830.63;10452949;28;20024;-81
2021/04/06 02:29:49;;;;;;;36.47;19.30;;;;;;;1.51;100.00;93823.22;10455350;28;20510;-83
2021/04/06 02:34:51;;;;;;;35.95;16.77;;;;;;;1.37;100.00;93832.53;10454933;28;20098;-83
2021/04/06 02:39:54;;;;;;;32.28;17.35;;;;;;;1.38;100.00;93828.03;10453189;28;20404;-83
2021/04/06 02:45:05;;;;;;;27.80;16.40;;;;;;;1.44;100.00;93837.66;10454543;28;20024;-82
2021/04/06 02:50:07;;;;;;;33.83;18.13;;;;;;;1.39;100.00;93822.47;10454754;28;20032;-83
2021/04/06 02:55:10;;;;;;;33.47;16.80;;;;;;;1.48;100.00;93829.00;10464961;28;20109;-84
2021/04/06 03:00:30;;;;;;;28.33;17.08;;;;;;;1.31;100.00;93833.47;10492253;28;20395;-74
2021/04/06 03:05:39;;;;;;;32.85;17.08;;;;;;;1.42;100.00;93835.25;10494693;28;20040;-85
2021/04/06 03:10:39;;;;;;;28.15;15.43;;;;;;;1.33;100.00;93826.09;10495472;28;20025;-83
2021/04/06 03:15:41;;;;;;;30.55;16.17;;;;;;;1.43;100.00;93817.53;10462912;28;20028;-85
2021/04/06 03:20:42;;;;;;;31.17;14.60;;;;;;;1.47;100.00;93821.31;10454034;28;20029;-84
2021/04/06 03:25:51;;;;;;;29.70;15.52;;;;;;;1.46;100.00;93806.44;10452875;28;20021;-83
2021/04/06 03:31:03;;;;;;;31.20;15.32;;;;;;;1.35;100.00;93813.41;10450514;28;20025;-85
2021/04/06 03:36:05;;;;;;;34.20;16.65;;;;;;;1.39;100.00;93814.53;10445169;28;20531;-84
2021/04/06 03:41:05;;;;;;;27.33;15.57;;;;;;;1.36;100.00;93812.38;10452055;28;20032;-84
2021/04/06 03:46:07;;;;;;;32.03;17.67;;;;;;;1.40;100.00;93805.56;10450365;28;20392;-81
2021/04/06 03:51:27;;;;;;;36.58;16.83;;;;;;;1.39;100.00;93811.91;10452495;28;20468;-83
2021/04/06 03:56:32;;;;;;;34.92;15.65;;;;;;;1.42;100.00;93794.72;10466120;28;20043;-82
2021/04/06 04:01:32;;;;;;;35.15;16.85;;;;;;;1.46;100.00;93799.31;10451688;28;20515;-83
2021/04/06 04:06:33;;;;;;;32.87;17.40;;;;;;;1.49;100.00;93801.50;10452311;28;20049;-82
2021/04/06 04:11:33;;;;;;;28.52;16.00;;;;;;;1.51;100.00;93802.03;10463853;28;20327;-85
2021/04/06 04:16:36;;;;;;;30.43;15.80;;;;;;;1.48;100.00;93796.41;10492161;28;20488;-84
2021/04/06 04:21:37;;;;;;;29.75;17.48;;;;;;;1.56;100.00;93798.66;10488408;28;20178;-85
2021/04/06 04:26:38;;;;;;;30.90;16.30;;;;;;;1.64;100.00;93800.91;10449257;28;20120;-82
2021/04/06 04:31:38;;;;;;;32.63;17.77;;;;;;;1.65;100.00;93810.47;10489729;28;20040;-74
2021/04/06 04:36:39;;;;;;;31.98;17.10;;;;;;;1.72;100.00;93805.03;10443868;28;20033;-74
2021/04/06 04:41:39;;;;;;;30.83;19.33;;;;;;;1.85;100.00;93804.69;10459909;28;20387;-74
2021/04/06 04:46:39;;;;;;;33.87;18.33;;;;;;;1.96;100.00;93795.06;10484016;28;20278;-74
2021/04/06 04:51:40;;;;;;;37.38;18.48;;;;;;;2.07;100.00;93803.97;10443752;28;20283;-74
2021/04/06 04:56:40;;;;;;;42.43;17.87;;;;;;;2.25;100.00;93789.63;10442252;28;20099;-74
2021/04/06 05:01:40;;;;;;;32.67;17.17;;;;;;;2.31;100.00;93790.50;10442372;28;20515;-75
2021/04/06 05:06:41;;;;;;;29.70;15.77;;;;;;;2.86;100.00;93779.00;10442105;28;20055;-74
2021/04/06 05:11:41;;;;;;;24.30;12.47;;;;;;;3.64;100.00;93777.06;10443166;28;20279;-75
2021/04/06 05:16:41;;;;;;;20.43;11.97;;;;;;;4.18;100.00;93776.13;10442475;28;20409;-75
2021/04/06 05:21:42;;;;;;;22.73;14.07;;;;;;;4.88;100.00;93786.59;10446862;28;20040;-75
2021/04/06 05:26:42;;;;;;;21.93;12.17;;;;;;;5.58;100.00;93786.22;10455489;28;20033;-75
2021/04/06 05:31:43;;;;;;;24.33;12.75;;;;;;;6.39;100.00;93773.13;10456376;28;20314;-75
2021/04/06 05:36:43;;;;;;;22.43;12.57;;;;;;;7.15;100.00;93771.25;10456528;28;20408;-75
2021/04/06 05:41:46;;;;;;;24.27;12.25;;;;;;;8.07;100.00;93771.72;10456444;28;20036;-75
2021/04/06 05:46:49;;;;;;;26.17;13.00;;;;;;;8.54;100.00;93775.59;10456007;28;20029;-76
2021/04/06 05:51:50;;;;;;;17.92;11.45;;;;;;;9.29;97.25;93763.44;10454282;28;20211;-76
2021/04/06 05:56:50;;;;;;;23.25;11.60;;;;;;;9.96;91.28;93769.72;10455551;28;20059;-76
2021/04/06 06:01:51;;;;;;;19.03;10.60;;;;;;;10.57;82.80;93749.91;10455518;28;20460;-76
2021/04/06 06:06:52;;;;;;;13.70;9.35;;;;;;;11.66;73.27;93740.41;10456159;28;20300;-74
2021/04/06 06:12:02;;;;;;;15.27;7.97;;;;;;;11.89;67.51;93735.03;10458327;28;20870;-76
2021/04/06 06:17:26;;;;;;;16.55;9.43;;;;;;;11.69;65.98;93741.72;10457499;28;20040;-75
2021/04/06 06:22:28;;;;;;;14.57;9.30;;;;;;;11.57;71.88;93732.28;10456306;28;20033;-75
2021/04/06 06:27:43;;;;;;;13.27;8.65;;;;;;;12.60;63.91;93732.50;10457846;28;20040;-75
2021/04/06 06:32:44;;;;;;;14.25;8.88;;;;;;;13.23;59.20;93723.47;10457009;28;20468;-76
2021/04/06 06:37:45;;;;;;;17.73;8.83;;;;;;;13.03;60.87;93722.97;10452228;28;20025;-76
2021/04/06 06:42:46;;;;;;;15.27;9.13;;;;;;;13.61;57.79;93714.84;10451343;28;20286;-75
2021/04/06 06:47:56;;;;;;;16.38;8.02;;;;;;;13.88;59.35;93708.31;10451817;28;20021;-75
2021/04/06 06:52:57;;;;;;;15.15;8.02;;;;;;;13.90;57.37;93699.88;10451292;28;20033;-76
2021/04/06 06:58:03;;;;;;;12.05;7.63;;;;;;;15.48;47.28;93690.06;10451498;28;20040;-76
2021/04/06 07:03:14;;;;;;;18.73;8.80;;;;;;;15.38;47.63;93682.34;10450593;28;20040;-75
2021/04/06 07:08:15;;;;;;;11.30;8.30;;;;;;;15.65;46.19;93685.63;10450616;28;20053;-75
2021/04/06 07:13:20;;;;;;;24.33;9.40;;;;;;;17.05;43.69;93676.06;10447334;28;20033;-76
2021/04/06 07:18:24;;;;;;;14.27;8.60;;;;;;;17.14;42.48;93673.25;10447080;28;20063;-76
2021/04/06 07:23:36;;;;;;;17.95;8.10;;;;;;;17.46;44.09;93674.22;10445437;28;20812;-76
2021/04/06 07:28:40;;;;;;;15.90;8.68;;;;;;;18.16;40.91;93661.47;10446553;28;20033;-76
2021/04/06 07:33:42;;;;;;;13.48;9.27;;;;;;;18.18;40.48;93670.03;10446366;28;20025;-76
2021/04/06 07:38:49;;;;;;;15.98;8.00;;;;;;;19.43;39.01;93650.53;10446073;28;20024;-76
2021/04/06 07:43:51;;;;;;;16.73;7.70;;;;;;;19.91;37.35;93647.69;10444065;28;20021;-76
2021/04/06 07:48:51;;;;;;;16.38;10.02;;;;;;;20.12;37.99;93638.31;10445382;28;20033;-75
2021/04/06 07:54:01;;;;;;;15.53;10.10;;;;;;;20.38;36.30;93631.41;10445534;28;20032;-76
2021/04/06 07:59:01;;;;;;;12.32;7.53;;;;;;;21.47;33.57;93629.22;10444120;28;20364;-76
2021/04/06 08:04:04;;;;;;;13.57;8.00;;;;;;;21.68;34.25;93626.03;10444513;28;20167;-75
2021/04/06 08:09:27;;;;;;;13.95;7.80;;;;;;;22.18;32.23;93612.16;10445351;28;20304;-75
2021/04/06 08:14:30;;;;;;;10.85;6.93;;;;;;;22.96;32.82;93594.09;10444520;28;20071;-75
2021/04/06 08:19:31;;;;;;;16.98;7.38;;;;;;;23.42;32.08;93598.34;10444950;28;20032;-76
2021/04/06 08:24:31;;;;;;;15.57;7.13;;;;;;;23.01;32.40;93585.50;10444630;28;20028;-76
2021/04/06 08:29:31;;;;;;;12.87;7.27;;;;;;;22.82;31.77;93578.34;10444523;28;20029;-75
2021/04/06 08:34:32;;;;;;;12.90;7.33;;;;;;;24.03;30.88;93562.97;10442674;28;20044;-76
2021/04/06 08:39:34;;;;;;;16.73;8.27;;;;;;;23.78;31.07;93546.38;10443802;28;20116;-76
2021/04/06 08:44:36;;;;;;;14.88;7.63;;;;;;;22.62;34.26;93537.50;10443732;28;20307;-76
2021/04/06 08:49:42;;;;;;;12.13;7.15;;;;;;;24.05;30.58;93535.91;10441355;28;20110;-76
2021/04/06 08:54:42;;;;;;;13.32;7.70;;;;;;;23.76;31.64;93532.28;10442210;28;20492;-76
2021/04/06 08:59:43;;;;;;;14.27;7.30;;;;;;;23.31;31.05;93519.56;10441020;28;20078;-76
2021/04/06 09:04:48;;;;;;;12.90;6.80;;;;;;;21.38;34.76;93530.31;10443103;28;20652;-76
2021/04/06 09:10:11;;;;;;;10.40;6.82;;;;;;;20.25;36.91;93516.97;10443786;28;20061;-76
2021/04/06 09:15:15;;;;;;;11.85;7.78;;;;;;;21.23;36.01;93508.28;10446920;28;20063;-76
2021/04/06 09:20:17;;;;;;;11.85;6.90;;;;;;;21.39;36.06;93497.16;10445622;28;20040;-76
2021/04/06 09:25:19;;;;;;;9.40;6.03;;;;;;;21.10;35.36;93490.56;10446410;28;20105;-75
2021/04/06 09:30:32;;;;;;;9.80;6.85;;;;;;;19.75;38.74;93494.28;10444967;28;20029;-76
2021/04/06 09:35:33;;;;;;;11.40;6.22;;;;;;;18.69;40.47;93490.56;10445037;28;20146;-76
2021/04/06 09:40:36;;;;;;;13.45;7.43;;;;;;;17.35;47.43;93480.31;10446089;28;20035;-75
2021/04/06 09:45:37;;;;;;;16.30;7.72;;;;;;;18.79;43.74;93473.69;10446520;28;20067;-75
2021/04/06 09:50:39;;;;;;;9.50;6.78;;;;;;;20.61;39.22;93462.97;10446356;28;20048;-76
2021/04/06 09:55:39;;;;;;;11.48;7.60;;;;;;;21.11;40.51;93454.69;10445595;28;20044;-76
2021/04/06 10:00:43;;;;;;;11.00;6.43;;;;;;;23.84;35.27;93438.63;10444869;28;20041;-76
2021/04/06 10:05:45;;;;;;;10.75;6.00;;;;;;;25.81;32.52;93424.88;10445161;28;20051;-76
2021/04/06 10:10:48;;;;;;;10.10;5.32;;;;;;;27.39;30.86;93403.41;10449317;28;20082;-76
2021/04/06 10:15:49;;;;;;;14.43;5.57;;;;;;;28.14;30.50;93386.97;10449641;28;20033;-76
2021/04/06 10:20:52;;;;;;;6.13;4.13;;;;;;;29.80;26.50;93368.00;10447571;28;20060;-76
2021/04/06 10:25:53;;;;;;;8.80;5.03;;;;;;;28.91;26.95;93362.34;10448659;28;20033;-76
2021/04/06 10:31:00;;;;;;;13.57;4.30;;;;;;;30.32;25.90;93358.13;10445535;28;20036;-76
2021/04/06 10:36:07;;;;;;;12.82;4.88;;;;;;;29.93;24.96;93332.16;10447929;28;20033;-76
2021/04/06 10:41:14;;;;;;;7.63;4.22;;;;;;;30.64;23.82;93326.03;10451205;28;20448;-76
2021/04/06 10:46:22;;;;;;;7.18;3.80;;;;;;;30.59;24.64;93306.34;10448657;28;20107;-76
2021/04/06 10:51:24;;;;;;;6.97;3.55;;;;;;;30.21;24.38;93304.97;10448523;28;20041;-76
2021/04/06 10:56:38;;;;;;;5.80;3.45;;;;;;;30.30;24.23;93284.94;10447659;28;20029;-76
2021/04/06 11:01:44;;;;;;;10.02;3.67;;;;;;;30.94;24.18;93273.31;10447346;28;20078;-76
2021/04/06 11:07:17;;;;;;;9.27;3.70;;;;;;;31.00;23.44;93263.22;10446131;28;20120;-76
2021/04/06 11:12:17;;;;;;;5.10;3.55;;;;;;;30.75;23.26;93247.31;10439881;28;20455;-76
2021/04/06 11:17:18;;;;;;;5.70;3.43;;;;;;;28.65;25.73;93248.72;10445990;28;20017;-76
2021/04/06 11:22:19;;;;;;;5.43;3.77;;;;;;;26.01;27.90;93228.91;10445480;28;20097;-76
2021/04/06 11:27:20;;;;;;;7.97;4.45;;;;;;;23.87;30.36;93231.28;10446354;28;20279;-77
2021/04/06 11:32:22;;;;;;;12.38;5.10;;;;;;;21.24;34.48;93217.50;10446120;28;20043;-76
2021/04/06 11:37:22;;;;;;;9.52;5.00;;;;;;;20.28;36.71;93226.28;10444268;28;20029;-76
2021/04/06 11:42:22;;;;;;;16.00;5.30;;;;;;;19.50;39.88;93230.28;10445641;28;20029;-76
2021/04/06 11:47:23;;;;;;;12.55;4.25;;;;;;;18.47;40.81;93203.66;10446423;28;20283;-76
2021/04/06 11:52:23;;;;;;;9.50;4.57;;;;;;;18.31;39.68;93198.31;10445548;28;20035;-76
2021/04/06 11:57:24;;;;;;;11.57;5.73;;;;;;;18.14;40.48;93193.31;10444506;28;20291;-76
2021/04/06 12:02:24;;;;;;;11.70;4.82;;;;;;;17.93;40.71;93181.69;10444666;28;20267;-76
2021/04/06 12:07:25;;;;;;;10.40;5.07;;;;;;;17.71;42.34;93171.50;10444266;28;20098;-76
2021/04/06 12:12:25;;;;;;;9.40;4.82;;;;;;;17.85;41.89;93169.06;10442965;28;20095;-76
2021/04/06 12:17:26;;;;;;;12.63;4.60;;;;;;;17.75;40.57;93161.50;10445024;28;20033;-76
2021/04/06 12:22:26;;;;;;;10.20;5.53;;;;;;;17.83;40.91;93149.59;10445386;28;20086;-76
2021/04/06 12:27:26;;;;;;;11.50;5.07;;;;;;;18.25;44.01;93139.94;10444789;28;20033;-76
2021/04/06 12:32:27;;;;;;;8.85;4.43;;;;;;;18.81;40.24;93122.22;10445293;28;20039;-76
2021/04/06 12:37:30;;;;;;;8.67;4.57;;;;;;;18.55;41.22;93131.91;10444234;28;20452;-76
2021/04/06 12:42:30;;;;;;;12.93;4.40;;;;;;;18.93;41.03;93127.47;10444583;28;20476;-76
2021/04/06 12:47:31;;;;;;;10.73;4.23;;;;;;;18.75;39.72;93113.59;10444902;28;20024;-76
2021/04/06 12:52:31;;;;;;;7.22;3.85;;;;;;;18.81;39.50;93116.78;10445252;28;20028;-77
2021/04/06 12:57:32;;;;;;;12.80;4.93;;;;;;;18.34;40.42;93104.34;10444538;28;20932;-76
2021/04/06 13:02:35;;;;;;;7.23;4.87;;;;;;;18.04;41.09;93102.25;10443911;28;20128;-76
2021/04/06 13:07:36;;;;;;;7.63;5.18;;;;;;;17.95;42.28;93090.84;10444522;28;20052;-76
2021/04/06 13:12:37;;;;;;;8.60;4.38;;;;;;;17.83;42.50;93089.81;10443552;28;20453;-76
2021/04/06 13:17:38;;;;;;;11.73;3.88;;;;;;;17.79;43.13;93074.59;10443594;28;20435;-76
2021/04/06 13:22:39;;;;;;;5.80;4.47;;;;;;;17.78;42.80;93068.38;10443988;28;20033;-76
2021/04/06 13:27:40;;;;;;;6.30;3.25;;;;;;;17.33;42.58;93043.47;10442167;28;20021;-76
2021/04/06 13:32:41;;;;;;;9.32;3.85;;;;;;;17.06;42.94;93046.00;10443971;28;20032;-76
2021/04/06 13:37:42;;;;;;;12.70;4.13;;;;;;;16.44;44.46;93025.97;10443462;28;20063;-76
2021/04/06 13:42:43;;;;;;;6.47;4.10;;;;;;;16.28;46.58;93020.59;10444615;28;20039;-76
2021/04/06 13:47:43;;;;;;;13.93;3.88;;;;;;;16.13;48.06;93014.84;10451760;28;20407;-76
2021/04/06 13:52:44;;;;;;;11.43;3.23;;;;;;;16.46;46.80;93010.94;10451757;28;20025;-76
2021/04/06 13:57:45;;;;;;;5.35;2.90;;;;;;;16.28;47.26;93004.34;10450400;28;20706;-76
2021/04/06 14:02:45;;;;;;;8.55;4.18;;;;;;;16.22;47.31;92990.25;10450791;28;20115;-75
2021/04/06 14:07:47;;;;;;;10.95;3.55;;;;;;;15.91;47.47;92996.47;10450039;28;20351;-75
2021/04/06 14:12:48;;;;;;;9.23;3.35;;;;;;;15.99;47.01;92990.09;10453062;28;20028;-76
2021/04/06 14:17:49;;;;;;;6.77;3.40;;;;;;;15.98;46.82;92991.25;10453145;28;20037;-75
2021/04/06 14:22:49;;;;;;;9.18;3.22;;;;;;;15.61;46.68;93003.06;10453650;28;20115;-76
2021/04/06 14:27:53;;;;;;;4.72;3.40;;;;;;;15.77;46.26;92996.88;10453220;28;20031;-76
2021/04/06 14:32:54;;;;;;;7.72;3.33;;;;;;;15.83;45.32;93009.84;10478330;28;20036;-75
2021/04/06 14:37:55;;;;;;;6.95;3.60;;;;;;;16.21;44.30;93005.75;10469352;28;20414;-76
2021/04/06 14:43:08;;;;;;;5.40;2.92;;;;;;;16.17;44.12;92983.19;10452320;28;20116;-76
2021/04/06 14:48:09;;;;;;;6.68;3.60;;;;;;;16.16;43.83;92983.53;10452539;28;20021;-76
2021/04/06 14:53:10;;;;;;;12.88;3.28;;;;;;;16.12;42.65;92996.22;10451677;28;20065;-75
2021/04/06 14:58:12;;;;;;;14.80;3.58;;;;;;;16.05;43.84;92992.19;10449444;28;20123;-76
2021/04/06 15:03:12;;;;;;;16.35;3.25;;;;;;;16.00;43.06;92986.25;10474315;28;20040;-76
2021/04/06 15:08:17;;;;;;;11.32;3.25;;;;;;;16.03;48.76;92994.47;10449680;28;20144;-76
2021/04/06 15:13:17;;;;;;;5.53;2.42;;;;;;;15.80;42.34;92996.22;10446055;28;20021;-75
2021/04/06 15:18:18;;;;;;;8.50;2.20;;;;;;;15.68;39.86;92986.22;10453321;28;20036;-75
2021/04/06 15:23:27;;;;;;;7.60;2.80;;;;;;;15.80;40.19;92990.81;10488043;28;20032;-75
2021/04/06 15:28:29;;;;;;;7.25;4.20;;;;;;;15.97;43.79;92990.44;10487681;28;20266;-75
2021/04/06 15:33:29;;;;;;;8.15;3.42;;;;;;;16.01;41.91;92985.13;10487327;28;20029;-76
2021/04/06 15:38:35;;;;;;;12.35;3.55;;;;;;;15.85;41.28;92983.19;10487754;28;20028;-76
2021/04/06 15:43:36;;;;;;;7.10;2.42;;;;;;;15.51;41.31;92992.75;10471906;28;20031;-76
2021/04/06 15:48:36;;;;;;;6.55;4.13;;;;;;;15.32;41.59;92994.19;10446121;28;20082;-77
2021/04/06 15:53:40;;;;;;;13.13;3.20;;;;;;;15.16;42.55;92985.25;10446850;28;20025;-76
2021/04/06 15:58:41;;;;;;;9.30;2.95;;;;;;;15.09;42.33;92991.25;10446371;28;20035;-76
2021/04/06 16:03:41;;;;;;;4.53;2.95;;;;;;;15.05;40.96;92990.34;10446738;28;20029;-76
2021/04/06 16:08:41;;;;;;;6.67;2.50;;;;;;;14.81;41.16;92983.13;10445442;28;20178;-75
2021/04/06 16:13:43;;;;;;;16.13;5.35;;;;;;;14.84;41.33;92975.09;10445908;28;20111;-76
2021/04/06 16:18:49;;;;;;;9.25;2.42;;;;;;;14.73;42.82;92984.03;10445238;28;20439;-75
2021/04/06 16:23:52;;;;;;;8.88;2.50;;;;;;;14.65;43.81;92997.34;10445258;28;20033;-75
2021/04/06 16:28:52;;;;;;;4.10;2.63;;;;;;;14.65;44.08;92997.34;10474185;28;20060;-75
2021/04/06 16:33:53;;;;;;;8.03;2.77;;;;;;;14.49;45.48;93009.97;10478309;28;20111;-75
2021/04/06 16:38:54;;;;;;;13.88;3.25;;;;;;;14.23;46.50;93013.03;10459827;28;20279;-76
2021/04/06 16:43:54;;;;;;;8.32;3.65;;;;;;;14.10;47.67;93013.03;10463327;28;20082;-75
2021/04/06 16:48:54;;;;;;;8.07;3.70;;;;;;;13.92;49.04;93017.84;10443497;28;20470;-75
2021/04/06 16:53:55;;;;;;;8.17;3.83;;;;;;;13.83;49.29;93017.94;10443286;28;20289;-75
2021/04/06 16:58:56;;;;;;;8.48;4.38;;;;;;;13.76;51.05;93022.31;10465688;28;20043;-76
2021/04/06 17:03:56;;;;;;;9.97;4.13;;;;;;;13.70;50.88;93024.44;10484731;28;20787;-76
2021/04/06 17:08:56;;;;;;;7.63;3.53;;;;;;;13.61;52.51;93029.16;10483876;28;20298;-76
2021/04/06 17:13:57;;;;;;;8.68;4.20;;;;;;;13.48;54.00;93042.63;10486591;28;20036;-75
2021/04/06 17:18:58;;;;;;;11.48;4.45;;;;;;;13.48;55.60;93055.34;10449242;28;20112;-76
2021/04/06 17:23:59;;;;;;;17.13;8.10;;;;;;;13.26;75.25;93068.03;10446296;28;20033;-79
2021/04/06 17:28:59;;;;;;;20.55;8.38;;;;;;;13.10;79.91;93073.25;10446920;28;20476;-79
2021/04/06 17:34:00;;;;;;;26.98;8.80;;;;;;;12.79;79.80;93084.41;10479757;28;20028;-79
2021/04/06 17:39:00;;;;;;;13.20;7.25;;;;;;;12.54;82.53;93096.94;10486284;28;20040;-79
2021/04/06 17:44:01;;;;;;;30.10;13.17;;;;;;;12.14;88.23;93108.84;10480890;28;20024;-73
2021/04/06 17:49:01;;;;;;;24.03;11.10;;;;;;;11.75;93.34;93122.25;10464454;28;20311;-73
2021/04/06 17:54:02;;;;;;;17.83;10.02;;;;;;;11.68;94.95;93137.28;10460572;28;20781;-73
2021/04/06 17:59:03;;;;;;;16.60;9.43;;;;;;;11.56;96.64;93149.47;10474824;28;20043;-72
2021/04/06 18:04:04;;;;;;;20.70;8.95;;;;;;;11.34;99.11;93144.28;10464909;28;20032;-73
2021/04/06 18:09:04;;;;;;;14.35;9.23;;;;;;;11.22;100.00;93153.78;10460462;28;20037;-74
2021/04/06 18:14:05;;;;;;;17.75;8.40;;;;;;;11.21;100.00;93157.56;10458848;28;20037;-73
2021/04/06 18:19:05;;;;;;;14.80;7.78;;;;;;;11.14;100.00;93159.94;10467098;28;20032;-72
2021/04/06 18:24:06;;;;;;;12.53;7.73;;;;;;;11.01;100.00;93175.09;10462139;28;20070;-72
2021/04/06 18:29:07;;;;;;;12.95;7.78;;;;;;;11.06;100.00;93177.63;10472757;28;20067;-72
2021/04/06 18:34:07;;;;;;;15.03;7.63;;;;;;;10.98;100.00;93186.50;10468445;28;20477;-73
2021/04/06 18:39:11;;;;;;;23.73;10.27;;;;;;;10.93;100.00;93200.84;10464918;28;20375;-72
2021/04/06 18:44:11;;;;;;;20.65;10.63;;;;;;;10.80;100.00;93203.66;10469570;28;20028;-72
2021/04/06 18:49:12;;;;;;;18.50;9.52;;;;;;;10.60;100.00;93224.63;10464897;28;20034;-72
2021/04/06 18:54:12;;;;;;;17.33;8.63;;;;;;;10.47;100.00;93233.59;10482265;28;20066;-73
2021/04/06 18:59:13;;;;;;;17.07;8.23;;;;;;;10.45;100.00;93252.66;10485109;28;20455;-73
2021/04/06 19:04:13;;;;;;;15.38;8.68;;;;;;;10.34;100.00;93265.59;10454387;28;20458;-73
2021/04/06 19:09:14;;;;;;;13.87;8.33;;;;;;;10.29;100.00;93263.00;10458930;28;20045;-73
2021/04/06 19:14:14;;;;;;;20.73;8.82;;;;;;;10.06;100.00;93259.53;10447366;28;20033;-73
2021/04/06 19:19:15;;;;;;;18.30;9.75;;;;;;;10.11;100.00;93264.00;10479624;28;20058;-77
2021/04/06 19:24:16;;;;;;;21.98;8.80;;;;;;;10.00;100.00;93277.66;10488085;28;20017;-77
2021/04/06 19:29:16;;;;;;;15.23;9.50;;;;;;;9.96;100.00;93273.97;10456726;28;20466;-76
2021/04/06 19:34:17;;;;;;;17.00;8.10;;;;;;;9.87;100.00;93279.28;10446695;28;20079;-76
2021/04/06 19:39:18;;;;;;;10.13;6.47;;;;;;;9.88;91.82;93272.84;10445168;28;20033;-76
2021/04/06 19:44:18;;;;;;;14.23;7.45;;;;;;;9.88;88.27;93277.44;10470954;28;20455;-76
2021/04/06 19:49:18;;;;;;;14.13;6.50;;;;;;;9.58;85.70;93291.22;10486432;28;20434;-76
2021/04/06 19:54:20;;;;;;;10.53;6.20;;;;;;;9.38;90.29;93297.81;10463705;28;20128;-76
2021/04/06 19:59:20;;;;;;;8.90;5.25;;;;;;;9.04;85.63;93309.78;10443971;28;20268;-76
2021/04/06 20:04:21;;;;;;;13.02;6.85;;;;;;;8.46;90.44;93304.97;10460354;28;20038;-72
2021/04/06 20:09:21;;;;;;;11.30;7.15;;;;;;;8.08;91.53;93305.03;10485129;28;20083;-74
2021/04/06 20:14:23;;;;;;;9.83;6.20;;;;;;;7.97;92.50;93310.53;10484026;28;20025;-73
2021/04/06 20:19:23;;;;;;;13.10;6.93;;;;;;;7.44;95.60;93318.81;10471140;28;20037;-72
2021/04/06 20:24:23;;;;;;;15.53;6.17;;;;;;;7.51;96.63;93313.91;10444961;28;20507;-72
2021/04/06 20:29:24;;;;;;;20.25;7.40;;;;;;;7.53;99.58;93309.06;10444890;28;20039;-73
2021/04/06 20:34:24;;;;;;;11.52;7.18;;;;;;;7.56;97.21;93313.03;10443976;28;20029;-73
2021/04/06 20:39:25;;;;;;;10.53;6.67;;;;;;;7.61;94.74;93321.78;10444868;28;20107;-72
2021/04/06 20:44:26;;;;;;;20.00;8.98;;;;;;;7.46;96.17;93311.28;10443869;28;20029;-72
2021/04/06 20:49:26;;;;;;;22.83;8.50;;;;;;;7.55;94.27;93308.75;10443272;28;20025;-73
2021/04/06 20:54:26;;;;;;;19.13;7.57;;;;;;;7.47;97.18;93299.53;10444197;28;20029;-73
2021/04/06 20:59:27;;;;;;;14.17;7.70;;;;;;;6.97;95.31;93332.72;10443245;28;20403;-72
2021/04/06 21:04:27;;;;;;;14.23;7.73;;;;;;;6.50;99.98;93329.78;10442799;28;20322;-72
2021/04/06 21:09:27;;;;;;;12.05;7.88;;;;;;;6.21;100.00;93329.78;10443529;28;20052;-72
2021/04/06 21:14:29;;;;;;;12.40;7.30;;;;;;;5.93;100.00;93329.44;10442739;28;20033;-73
2021/04/06 21:19:29;;;;;;;14.10;7.90;;;;;;;5.76;100.00;93331.69;10475837;28;20454;-72
2021/04/06 21:24:30;;;;;;;14.07;8.20;;;;;;;5.42;100.00;93337.78;10484948;28;20024;-73
2021/04/06 21:29:30;;;;;;;18.40;9.50;;;;;;;5.38;100.00;93340.19;10483874;28;20032;-73
2021/04/06 21:34:30;;;;;;;19.23;9.50;;;;;;;5.29;100.00;93355.16;10470319;28;20041;-72
2021/04/06 21:39:31;;;;;;;16.43;8.97;;;;;;;5.18;100.00;93340.28;10443113;28;20115;-73
2021/04/06 21:44:32;;;;;;;17.55;10.23;;;;;;;5.21;100.00;93337.88;10440742;28;20037;-73
2021/04/06 21:49:32;;;;;;;15.98;8.55;;;;;;;5.11;100.00;93317.41;10441234;28;20094;-73
2021/04/06 21:54:32;;;;;;;13.23;8.02;;;;;;;5.25;100.00;93301.63;10442214;28;20482;-73
2021/04/06 21:59:33;;;;;;;21.37;9.00;;;;;;;5.44;100.00;93282.31;10442447;28;20033;-72
2021/04/06 22:04:33;;;;;;;12.30;8.00;;;;;;;5.43;100.00;93294.88;10444717;28;20021;-72
2021/04/06 22:09:34;;;;;;;18.57;7.60;;;;;;;5.39;100.00;93303.69;10449938;28;20045;-73
2021/04/06 22:14:35;;;;;;;13.77;9.32;;;;;;;5.46;100.00;93283.66;10450153;28;20291;-73
2021/04/06 22:19:35;;;;;;;16.03;8.87;;;;;;;5.53;100.00;93267.34;10483306;28;20111;-72
2021/04/06 22:24:35;;;;;;;19.03;8.20;;;;;;;5.78;100.00;93270.91;10490783;28;20328;-73
2021/04/06 22:29:36;;;;;;;14.10;8.53;;;;;;;6.08;100.00;93280.53;10490570;28;20378;-72
2021/04/06 22:34:37;;;;;;;11.38;8.52;;;;;;;6.35;100.00;93303.25;10490386;28;20039;-73
2021/04/06 22:39:37;;;;;;;19.13;8.83;;;;;;;6.43;100.00;93320.50;10490304;28;20479;-73
2021/04/06 22:44:39;;;;;;;19.45;7.70;;;;;;;6.55;100.00;93317.47;10490431;28;20274;-72
2021/04/06 22:49:39;;;;;;;20.48;8.32;;;;;;;6.50;100.00;93308.44;10489449;28;20499;-72
2021/04/06 22:54:40;;;;;;;14.73;8.13;;;;;;;6.38;100.00;93300.00;10489326;28;20041;-73
2021/04/06 22:59:41;;;;;;;15.10;8.00;;;;;;;6.36;100.00;93294.13;10487909;28;20028;-73
2021/04/06 23:04:42;;;;;;;12.23;8.70;;;;;;;6.46;100.00;93272.72;10489038;28;20034;-73
2021/04/06 23:09:43;;;;;;;20.35;9.38;;;;;;;6.49;100.00;93287.38;10488606;28;20052;-73